Time;durP1;ratioP1;P1;durP2;ratioP2;P2;SDS_P1;SDS_P2;PMS_P1;PMS_P2;Temp;Humidity;BMP_temperature;BMP_pressure;BME280_temperature;BME280_humidity;BME280_pressure;Samples;Min_cycle;Max_cycle;Signal;HPM_P1;HPM_P2
2021/03/04 00:04:16;;;;;;;70.53;58.83;;;;;;;;;;6202380;23;20501;-86
2021/03/04 00:07:27;;;;;;;;;;;;;;;;;;;;;
2021/03/04 00:15:10;;;;;;;74.93;60.17;;;;;;;;;;6004133;23;20403;-85
2021/03/04 00:29:22;;;;;;;;;;;;;;;;;;;;;
2021/03/04 00:56:17;;;;;;;84.13;60.97;;;;;;;;;;6158861;23;20387;-78
2021/03/04 01:02:06;;;;;;;86.53;65.23;;;;;;;;;;6193321;23;20877;-79
2021/03/04 01:04:42;;;;;;;80.37;62.00;;;;;;;;;;6281940;22;20842;-79
2021/03/04 01:11:08;;;;;;;96.43;64.00;;;;;;;;;;6099170;23;20188;-79
2021/03/04 01:13:55;;;;;;;74.95;60.17;;;;;;;;;;6139406;22;20376;-77
2021/03/04 01:20:22;;;;;;;76.10;58.92;;;;;;;;;;6186966;23;20199;-79
2021/03/04 01:22:49;;;;;;;80.50;63.30;;;;;;;;;;6187858;23;20136;-79
2021/03/04 01:25:16;;;;;;;81.63;62.70;;;;;;;;;;6225535;22;20393;-78
2021/03/04 01:27:42;;;;;;;80.53;61.33;;;;;;;;;;6281298;22;20360;-78
2021/03/04 01:30:09;;;;;;;83.60;64.80;;;;;;;;;;6280510;22;20376;-79
2021/03/04 01:32:35;;;;;;;81.57;65.20;;;;;;;;;;6280435;22;20372;-78
2021/03/04 01:35:01;;;;;;;86.27;66.53;;;;;;;;;;6229179;22;20375;-77
2021/03/04 01:37:27;;;;;;;74.57;60.63;;;;;;;;;;6280548;22;20376;-78
2021/03/04 01:39:53;;;;;;;88.60;63.73;;;;;;;;;;6283071;22;20408;-79
2021/03/04 01:42:19;;;;;;;89.57;65.40;;;;;;;;;;6284955;22;20442;-77
2021/03/04 01:44:45;;;;;;;82.70;67.90;;;;;;;;;;6236858;22;20375;-77
2021/03/04 01:47:11;;;;;;;85.88;62.67;;;;;;;;;;6289501;22;20471;-78
2021/03/04 01:49:37;;;;;;;91.00;68.50;;;;;;;;;;6257410;22;20175;-78
2021/03/04 01:52:03;;;;;;;99.13;70.80;;;;;;;;;;6270428;22;20356;-77
2021/03/04 01:54:30;;;;;;;94.38;71.25;;;;;;;;;;6270631;22;20182;-77
2021/03/04 01:56:56;;;;;;;81.47;66.27;;;;;;;;;;6295037;22;20639;-77
2021/03/04 01:59:22;;;;;;;103.55;74.55;;;;;;;;;;6267372;22;20463;-79
2021/03/04 02:01:49;;;;;;;99.07;73.88;;;;;;;;;;6304989;22;20152;-80
2021/03/04 02:04:15;;;;;;;88.93;73.18;;;;;;;;;;6278669;22;20145;-80
2021/03/04 02:07:01;;;;;;;99.47;77.72;;;;;;;;;;6276548;22;20152;-77
2021/03/04 02:09:27;;;;;;;96.18;78.32;;;;;;;;;;6227330;22;20264;-79
2021/03/04 02:11:55;;;;;;;96.25;78.22;;;;;;;;;;6279476;22;20142;-79
2021/03/04 02:14:28;;;;;;;91.47;74.73;;;;;;;;;;6226431;22;20595;-77
2021/03/04 02:16:56;;;;;;;90.10;79.20;;;;;;;;;;6227614;22;20380;-78
2021/03/04 02:19:42;;;;;;;99.20;77.53;;;;;;;;;;6279480;22;20188;-79
2021/03/04 02:22:27;;;;;;;110.63;85.60;;;;;;;;;;6259542;22;20683;-77
2021/03/04 02:24:57;;;;;;;94.43;75.00;;;;;;;;;;6253218;22;20270;-78
2021/03/04 02:27:26;;;;;;;105.53;77.35;;;;;;;;;;6281594;22;20152;-78
2021/03/04 02:30:21;;;;;;;106.53;81.57;;;;;;;;;;6253219;22;20173;-78
2021/03/04 02:32:48;;;;;;;111.53;79.20;;;;;;;;;;6254712;22;20669;-78
2021/03/04 02:35:35;;;;;;;92.88;78.65;;;;;;;;;;6253481;22;20154;-80
2021/03/04 02:38:09;;;;;;;104.05;84.30;;;;;;;;;;6278448;22;20176;-78
2021/03/04 02:40:50;;;;;;;103.78;82.65;;;;;;;;;;6281057;22;20157;-78
2021/03/04 02:43:17;;;;;;;102.88;79.55;;;;;;;;;;6228745;22;20149;-79
2021/03/04 02:45:44;;;;;;;107.45;82.30;;;;;;;;;;6254569;22;20138;-79
2021/03/04 02:48:11;;;;;;;113.70;90.32;;;;;;;;;;6229109;22;20225;-79
2021/03/04 02:50:38;;;;;;;116.07;88.38;;;;;;;;;;6230823;22;20157;-77
2021/03/04 02:53:05;;;;;;;107.78;82.75;;;;;;;;;;6230881;22;20489;-79
2021/03/04 02:55:32;;;;;;;118.57;86.28;;;;;;;;;;6232698;22;20142;-78
2021/03/04 02:57:59;;;;;;;103.90;84.13;;;;;;;;;;6229897;22;20177;-78
2021/03/04 03:00:27;;;;;;;108.13;83.80;;;;;;;;;;6230343;22;20419;-78
2021/03/04 03:02:55;;;;;;;114.97;79.57;;;;;;;;;;6230398;22;20568;-78
2021/03/04 03:05:23;;;;;;;100.88;83.72;;;;;;;;;;6231159;22;20145;-78
2021/03/04 03:07:50;;;;;;;108.13;83.27;;;;;;;;;;6255313;22;20583;-76
2021/03/04 03:10:18;;;;;;;103.47;84.57;;;;;;;;;;6231492;22;20676;-78
2021/03/04 03:12:45;;;;;;;122.22;91.30;;;;;;;;;;6283013;22;20141;-77
2021/03/04 03:15:13;;;;;;;112.25;88.13;;;;;;;;;;6255301;22;20180;-77
2021/03/04 03:17:40;;;;;;;102.13;83.43;;;;;;;;;;6282586;22;20149;-79
2021/03/04 03:20:07;;;;;;;123.35;89.28;;;;;;;;;;6282642;22;20165;-78
2021/03/04 03:22:34;;;;;;;110.55;88.35;;;;;;;;;;6255618;22;20586;-78
2021/03/04 03:25:00;;;;;;;109.97;86.75;;;;;;;;;;6281613;22;20191;-78
2021/03/04 03:27:27;;;;;;;125.30;87.93;;;;;;;;;;6253868;22;20149;-77
2021/03/04 03:29:54;;;;;;;110.95;83.45;;;;;;;;;;6254158;22;20169;-78
2021/03/04 03:32:22;;;;;;;111.83;87.00;;;;;;;;;;6254281;22;20208;-78
2021/03/04 03:34:48;;;;;;;125.47;88.47;;;;;;;;;;6229794;22;20417;-78
2021/03/04 03:37:15;;;;;;;116.80;84.15;;;;;;;;;;6282449;22;20145;-79
2021/03/04 03:39:42;;;;;;;105.57;78.53;;;;;;;;;;6271289;22;20161;-79
2021/03/04 03:42:08;;;;;;;115.82;82.80;;;;;;;;;;6277681;22;20160;-77
2021/03/04 03:44:35;;;;;;;108.53;84.97;;;;;;;;;;6279077;22;20129;-78
2021/03/04 03:47:02;;;;;;;93.47;74.97;;;;;;;;;;6267533;22;20145;-77
2021/03/04 03:49:28;;;;;;;97.32;72.13;;;;;;;;;;6281001;22;20161;-77
2021/03/04 03:51:55;;;;;;;104.50;71.90;;;;;;;;;;6281359;22;20576;-78
2021/03/04 03:54:21;;;;;;;104.57;68.60;;;;;;;;;;6280974;22;20596;-78
2021/03/04 03:56:47;;;;;;;102.57;74.28;;;;;;;;;;6281790;22;20183;-78
2021/03/04 03:59:13;;;;;;;110.65;76.65;;;;;;;;;;6228734;22;20521;-78
2021/03/04 04:01:40;;;;;;;96.60;76.10;;;;;;;;;;6280710;22;20145;-78
2021/03/04 04:04:06;;;;;;;110.28;77.70;;;;;;;;;;6281492;22;20137;-78
2021/03/04 04:06:32;;;;;;;98.70;76.18;;;;;;;;;;6254234;22;20199;-78
2021/03/04 04:08:58;;;;;;;92.05;71.20;;;;;;;;;;6255994;22;20697;-79
2021/03/04 04:11:26;;;;;;;95.90;72.13;;;;;;;;;;6282700;22;20203;-79
2021/03/04 04:13:53;;;;;;;97.72;76.25;;;;;;;;;;6253572;22;20159;-78
2021/03/04 04:16:19;;;;;;;107.32;76.22;;;;;;;;;;6253519;22;20291;-76
2021/03/04 04:18:45;;;;;;;94.15;69.15;;;;;;;;;;6253532;22;20244;-78
2021/03/04 04:21:12;;;;;;;102.28;71.13;;;;;;;;;;6228753;22;20187;-78
2021/03/04 04:23:38;;;;;;;101.22;73.00;;;;;;;;;;6254243;22;20202;-78
2021/03/04 04:26:04;;;;;;;90.95;64.90;;;;;;;;;;6253623;22;20150;-79
2021/03/04 04:28:30;;;;;;;87.90;67.20;;;;;;;;;;6281622;22;20248;-78
2021/03/04 04:30:56;;;;;;;73.80;58.97;;;;;;;;;;6254498;22;20137;-79
2021/03/04 04:33:22;;;;;;;86.28;61.58;;;;;;;;;;6256650;22;20515;-77
2021/03/04 04:35:48;;;;;;;78.35;59.65;;;;;;;;;;6257732;22;20195;-78
2021/03/04 04:38:15;;;;;;;84.20;59.40;;;;;;;;;;6260425;22;20177;-78
2021/03/04 04:40:41;;;;;;;81.97;56.83;;;;;;;;;;6302100;22;20180;-78
2021/03/04 04:43:07;;;;;;;83.22;56.83;;;;;;;;;;6297739;22;20133;-77
2021/03/04 04:45:33;;;;;;;89.18;59.03;;;;;;;;;;6293689;22;20183;-78
2021/03/04 04:47:59;;;;;;;98.38;57.15;;;;;;;;;;6300922;22;20172;-77
2021/03/04 04:50:25;;;;;;;95.60;61.58;;;;;;;;;;6243254;22;20160;-77
2021/03/04 04:52:51;;;;;;;84.10;60.75;;;;;;;;;;6266247;22;20199;-77
2021/03/04 04:55:17;;;;;;;90.93;59.13;;;;;;;;;;6242428;22;20153;-77
2021/03/04 04:57:43;;;;;;;85.32;58.72;;;;;;;;;;6291776;22;20144;-80
2021/03/04 05:00:10;;;;;;;88.22;58.83;;;;;;;;;;6242786;22;20200;-76
2021/03/04 05:02:36;;;;;;;95.68;59.58;;;;;;;;;;6293741;22;20128;-78
2021/03/04 05:05:04;;;;;;;94.43;61.22;;;;;;;;;;6240539;22;20148;-78
2021/03/04 05:07:30;;;;;;;93.90;58.08;;;;;;;;;;6263612;22;20145;-77
2021/03/04 05:09:56;;;;;;;79.82;54.80;;;;;;;;;;6272446;22;20217;-78
2021/03/04 05:12:22;;;;;;;84.57;58.00;;;;;;;;;;6296141;22;20224;-78
2021/03/04 05:14:49;;;;;;;93.60;57.33;;;;;;;;;;6288100;22;20193;-79
2021/03/04 05:17:15;;;;;;;89.15;58.58;;;;;;;;;;6283551;22;20694;-78
2021/03/04 05:19:41;;;;;;;95.38;60.05;;;;;;;;;;6277564;22;20180;-79
2021/03/04 05:22:07;;;;;;;87.85;56.38;;;;;;;;;;6278397;22;20160;-80
2021/03/04 05:24:33;;;;;;;89.30;54.97;;;;;;;;;;6304910;22;20137;-79
2021/03/04 05:26:59;;;;;;;84.38;55.53;;;;;;;;;;6287622;22;20157;-78
2021/03/04 05:29:25;;;;;;;79.17;53.30;;;;;;;;;;6226922;22;20252;-77
2021/03/04 05:31:51;;;;;;;80.53;55.70;;;;;;;;;;6280424;22;20744;-78
2021/03/04 05:34:17;;;;;;;81.45;53.00;;;;;;;;;;6253476;22;20394;-75
2021/03/04 05:36:43;;;;;;;76.07;53.38;;;;;;;;;;6280799;22;20145;-79
2021/03/04 05:39:09;;;;;;;89.10;54.47;;;;;;;;;;6228218;22;20179;-78
2021/03/04 05:41:35;;;;;;;93.17;56.87;;;;;;;;;;6282163;22;20421;-79
2021/03/04 05:44:01;;;;;;;75.68;50.53;;;;;;;;;;6229627;22;20380;-78
2021/03/04 05:46:32;;;;;;;86.72;55.30;;;;;;;;;;6281409;22;20468;-77
2021/03/04 05:49:01;;;;;;;79.57;51.67;;;;;;;;;;6280239;22;20175;-77
2021/03/04 05:51:31;;;;;;;76.43;47.75;;;;;;;;;;6285745;22;20168;-78
2021/03/04 05:53:58;;;;;;;76.72;46.55;;;;;;;;;;6263965;22;20165;-78
2021/03/04 05:56:24;;;;;;;59.17;41.92;;;;;;;;;;6261404;22;20181;-77
2021/03/04 06:29:20;;;;;;;74.13;46.70;;;;;;;;;;6048490;23;20169;-84
2021/03/04 06:59:43;;;;;;;;;;;;;;;;;;;;;
2021/03/04 08:08:50;;;;;;;;;;;;;;;;;;;;;
2021/03/04 08:25:20;;;;;;;53.00;35.25;;;;;;;;;;6315333;22;20223;-79
2021/03/04 08:31:58;;;;;;;59.55;33.13;;;;;;;;;;6132769;23;20227;-78
2021/03/04 08:45:49;;;;;;;37.83;24.73;;;;;;;;;;6288767;22;20193;-87
2021/03/04 09:30:29;;;;;;;38.35;27.63;;;;;;;;;;6284118;22;20607;-80
2021/03/04 10:30:31;;;;;;;40.15;26.90;;;;;;;;;;6278009;22;20270;-79
2021/03/04 10:34:03;;;;;;;;;;;;;;;;;;;;;
2021/03/04 10:44:19;;;;;;;;;;;;;;;;;;;;;
2021/03/04 10:50:27;;;;;;;39.90;27.10;;;;;;;;;;6159074;23;20197;-77
2021/03/04 10:53:22;;;;;;;;;;;;;;;;;;;;;
2021/03/04 10:59:56;;;;;;;;;;;;;;;;;;;;;
2021/03/04 11:13:40;;;;;;;27.23;21.45;;;;;;;;;;6049601;23;20169;-77
2021/03/04 11:23:45;;;;;;;;;;;;;;;;;;;;;
2021/03/04 11:30:24;;;;;;;23.33;17.45;;;;;;;;;;6136255;23;20198;-79
2021/03/04 11:33:03;;;;;;;;;;;;;;;;;;;;;
2021/03/04 11:39:58;;;;;;;;;;;;;;;;;;;;;
2021/03/04 12:46:34;;;;;;;;;;;;;;;;;;;;;
2021/03/04 12:50:15;;;;;;;;;;;;;;;;;;;;;
2021/03/04 12:57:13;;;;;;;12.57;9.10;;;;;;;;;;5966561;24;20302;-78
2021/03/04 12:59:54;;;;;;;9.30;8.38;;;;;;;;;;5966344;24;20185;-79
2021/03/04 13:06:24;;;;;;;9.52;7.10;;;;;;;;;;5916194;24;20167;-80
2021/03/04 13:08:53;;;;;;;10.10;8.20;;;;;;;;;;5963731;24;20179;-80
2021/03/04 13:11:46;;;;;;;;;;;;;;;;;;;;;
2021/03/04 13:14:46;;;;;;;;;;;;;;;;;;;;;
2021/03/04 13:17:32;;;;;;;11.18;9.60;;;;;;;;;;6061651;23;20149;-80
2021/03/04 13:20:32;;;;;;;;;;;;;;;;;;;;;
2021/03/04 13:23:05;;;;;;;13.70;9.05;;;;;;;;;;6122592;23;20148;-78
2021/03/04 13:25:32;;;;;;;8.85;7.95;;;;;;;;;;6146229;23;20161;-80
2021/03/04 13:28:42;;;;;;;;;;;;;;;;;;;;;
2021/03/04 13:32:06;;;;;;;;;;;;;;;;;;;;;
2021/03/04 13:34:36;;;;;;;9.27;8.38;;;;;;;;;;6261822;22;20195;-78
2021/03/04 13:37:15;;;;;;;8.88;7.63;;;;;;;;;;6270867;22;20141;-79
2021/03/04 13:40:24;;;;;;;9.43;7.50;;;;;;;;;;6273886;22;20216;-80
2021/03/04 13:43:04;;;;;;;8.38;7.05;;;;;;;;;;6303089;22;20148;-80
2021/03/04 13:45:36;;;;;;;6.88;6.28;;;;;;;;;;6249539;22;20160;-77
2021/03/04 13:51:48;;;;;;;9.07;7.40;;;;;;;;;;6257523;22;20207;-78
2021/03/04 13:54:38;;;;;;;;;;;;;;;;;;;;;
2021/03/04 13:57:25;;;;;;;8.43;7.55;;;;;;;;;;6280166;22;20196;-79
2021/03/04 13:59:54;;;;;;;9.35;6.90;;;;;;;;;;6258108;22;20231;-78
2021/03/04 14:02:21;;;;;;;8.20;7.47;;;;;;;;;;6257765;22;20145;-78
2021/03/04 14:04:57;;;;;;;;;;;;;;;;;;;;;
2021/03/04 14:07:40;;;;;;;;;;;;;;;;;;;;;
2021/03/04 14:10:22;;;;;;;8.77;7.65;;;;;;;;;;6283750;22;20222;-81
2021/03/04 14:12:51;;;;;;;8.40;7.28;;;;;;;;;;6260693;22;20152;-78
2021/03/04 14:15:18;;;;;;;9.57;6.78;;;;;;;;;;6287552;22;20145;-80
2021/03/04 14:18:07;;;;;;;8.43;6.45;;;;;;;;;;6286808;22;20141;-78
2021/03/04 14:20:34;;;;;;;10.23;7.75;;;;;;;;;;6284566;22;20179;-79
2021/03/04 14:23:02;;;;;;;8.38;7.53;;;;;;;;;;6258381;22;20146;-79
2021/03/04 14:25:43;;;;;;;16.13;10.45;;;;;;;;;;6257346;22;20595;-78
2021/03/04 14:28:34;;;;;;;7.72;6.95;;;;;;;;;;6261620;22;20225;-79
2021/03/04 14:31:10;;;;;;;9.52;8.65;;;;;;;;;;6284055;22;20141;-78
2021/03/04 14:33:57;;;;;;;8.18;7.35;;;;;;;;;;6282946;22;20132;-80
2021/03/04 14:36:39;;;;;;;9.35;7.15;;;;;;;;;;6258273;22;20459;-79
2021/03/04 14:39:20;;;;;;;9.10;7.90;;;;;;;;;;6254645;22;20216;-79
2021/03/04 14:42:14;;;;;;;10.30;8.98;;;;;;;;;;6284797;22;20160;-79
2021/03/04 14:44:52;;;;;;;9.70;7.68;;;;;;;;;;6271635;22;20148;-80
2021/03/04 14:47:38;;;;;;;8.13;7.28;;;;;;;;;;6269522;22;20169;-80
2021/03/04 14:50:11;;;;;;;13.80;9.75;;;;;;;;;;6266533;22;20173;-78
2021/03/04 14:52:45;;;;;;;9.52;8.45;;;;;;;;;;6292530;22;20140;-77
2021/03/04 14:55:39;;;;;;;12.82;10.18;;;;;;;;;;6289421;22;20156;-80
2021/03/04 14:58:18;;;;;;;9.07;7.57;;;;;;;;;;6257758;22;20211;-79
2021/03/04 15:00:47;;;;;;;7.70;6.90;;;;;;;;;;6284372;22;20177;-80
2021/03/04 15:03:17;;;;;;;12.23;9.00;;;;;;;;;;6259485;22;20146;-80
2021/03/04 15:05:51;;;;;;;10.05;8.15;;;;;;;;;;6259076;22;20266;-80
2021/03/04 15:08:45;;;;;;;10.73;7.38;;;;;;;;;;6260749;22;20233;-80
2021/03/04 15:11:28;;;;;;;12.95;7.25;;;;;;;;;;6288993;22;20129;-80
2021/03/04 15:14:01;;;;;;;7.90;6.97;;;;;;;;;;6261756;22;20483;-80
2021/03/04 15:16:45;;;;;;;12.30;8.40;;;;;;;;;;6265267;22;20142;-79
2021/03/04 15:19:25;;;;;;;;;;;;;;;;;;;;;
2021/03/04 15:21:51;;;;;;;10.70;7.65;;;;;;;;;;6305933;22;20121;-83
2021/03/04 15:24:18;;;;;;;11.80;7.53;;;;;;;;;;6279061;22;20146;-80
2021/03/04 15:26:48;;;;;;;10.85;7.97;;;;;;;;;;6271230;22;20150;-81
2021/03/04 15:29:25;;;;;;;;;;;;;;;;;;;;;
2021/03/04 15:31:53;;;;;;;10.10;9.02;;;;;;;;;;6259036;22;20149;-80
2021/03/04 15:34:24;;;;;;;12.32;10.40;;;;;;;;;;6258091;22;20153;-79
2021/03/04 15:37:01;;;;;;;10.43;9.43;;;;;;;;;;6261791;22;20157;-80
2021/03/04 15:40:00;;;;;;;11.38;10.25;;;;;;;;;;6259618;22;20279;-81
2021/03/04 15:42:25;;;;;;;11.82;10.38;;;;;;;;;;6258527;22;20220;-79
2021/03/04 15:44:53;;;;;;;15.75;11.30;;;;;;;;;;6259802;22;20602;-80
2021/03/04 15:47:20;;;;;;;13.65;11.30;;;;;;;;;;6258973;22;20153;-80
2021/03/04 15:49:46;;;;;;;15.32;11.35;;;;;;;;;;6285893;22;20189;-81
2021/03/04 15:52:16;;;;;;;13.90;11.32;;;;;;;;;;6235070;22;20146;-80
2021/03/04 15:54:53;;;;;;;12.68;9.10;;;;;;;;;;6258329;22;20152;-80
2021/03/04 15:57:25;;;;;;;11.90;10.50;;;;;;;;;;6258684;22;20584;-79
2021/03/04 16:00:16;;;;;;;15.38;11.27;;;;;;;;;;6240078;22;20224;-81
2021/03/04 16:02:48;;;;;;;12.88;11.48;;;;;;;;;;6285821;22;20442;-78
2021/03/04 16:05:20;;;;;;;17.25;13.50;;;;;;;;;;6233619;22;20572;-79
2021/03/04 16:07:59;;;;;;;16.23;12.35;;;;;;;;;;6234986;22;20146;-81
2021/03/04 16:10:26;;;;;;;17.15;10.95;;;;;;;;;;6234644;22;20227;-80
2021/03/04 16:13:05;;;;;;;21.35;11.80;;;;;;;;;;6257998;22;20216;-78
2021/03/04 16:15:50;;;;;;;20.27;15.15;;;;;;;;;;6264142;22;20164;-80
2021/03/04 16:18:17;;;;;;;22.73;13.85;;;;;;;;;;6233709;22;20156;-79
2021/03/04 16:20:44;;;;;;;16.60;13.68;;;;;;;;;;6234763;22;20173;-85
2021/03/04 16:26:52;;;;;;;19.10;13.90;;;;;;;;;;6163258;23;20164;-79
2021/03/04 16:44:45;;;;;;;18.65;12.90;;;;;;;;;;6287495;22;20201;-79
2021/03/04 16:50:49;;;;;;;20.17;13.77;;;;;;;;;;6149464;23;20156;-76
2021/03/04 16:57:04;;;;;;;20.90;15.40;;;;;;;;;;6233778;22;20613;-79
2021/03/04 17:02:47;;;;;;;18.55;14.68;;;;;;;;;;6278273;22;20181;-80
2021/03/04 17:05:16;;;;;;;23.40;15.75;;;;;;;;;;6260628;22;20149;-82
2021/03/04 17:07:45;;;;;;;24.23;15.65;;;;;;;;;;6260625;22;20195;-82
2021/03/04 17:10:15;;;;;;;19.02;13.55;;;;;;;;;;6261502;22;20232;-81
2021/03/04 17:12:42;;;;;;;17.23;13.43;;;;;;;;;;6258624;22;20543;-79
2021/03/04 17:15:08;;;;;;;19.27;14.27;;;;;;;;;;6233472;22;20432;-80
2021/03/04 17:17:35;;;;;;;24.70;17.02;;;;;;;;;;6232858;22;20240;-80
2021/03/04 17:20:02;;;;;;;19.00;14.77;;;;;;;;;;6259400;22;20268;-79
2021/03/04 17:22:28;;;;;;;24.10;15.93;;;;;;;;;;6236205;22;20176;-79
2021/03/04 17:24:55;;;;;;;21.63;15.88;;;;;;;;;;6238022;22;20219;-78
2021/03/04 17:27:25;;;;;;;18.20;14.63;;;;;;;;;;6265950;22;20228;-80
2021/03/04 17:29:51;;;;;;;21.67;17.27;;;;;;;;;;6291835;22;20201;-80
2021/03/04 17:32:18;;;;;;;27.48;18.70;;;;;;;;;;6263950;22;20164;-79
2021/03/04 17:35:27;;;;;;;;;;;;;;;;;;;;;
2021/03/04 17:37:53;;;;;;;20.92;16.15;;;;;;;;;;6259427;22;20141;-82
2021/03/04 17:40:20;;;;;;;33.55;19.92;;;;;;;;;;6265585;22;20184;-78
2021/03/04 17:42:46;;;;;;;28.58;16.88;;;;;;;;;;6266252;22;20173;-82
2021/03/04 17:45:13;;;;;;;23.05;16.73;;;;;;;;;;6262389;22;20579;-79
2021/03/04 17:47:39;;;;;;;24.67;19.63;;;;;;;;;;6263789;22;20173;-82
2021/03/04 17:50:06;;;;;;;25.73;18.77;;;;;;;;;;6263675;22;20518;-80
2021/03/04 17:52:32;;;;;;;22.27;18.52;;;;;;;;;;6238367;22;20173;-79
2021/03/04 17:54:59;;;;;;;25.95;17.30;;;;;;;;;;6265620;22;20148;-81
2021/03/04 17:57:25;;;;;;;26.55;18.40;;;;;;;;;;6238868;22;20160;-82
2021/03/04 17:59:51;;;;;;;23.48;18.10;;;;;;;;;;6245505;22;20161;-83
2021/03/04 18:02:18;;;;;;;27.13;19.38;;;;;;;;;;6278012;22;20153;-85
2021/03/04 18:04:57;;;;;;;26.92;19.33;;;;;;;;;;6277840;22;20142;-84
2021/03/04 18:07:24;;;;;;;26.80;18.23;;;;;;;;;;6303829;22;20157;-79
2021/03/04 18:09:50;;;;;;;20.38;18.17;;;;;;;;;;6268468;22;20156;-80
2021/03/04 18:12:19;;;;;;;28.25;20.42;;;;;;;;;;6290262;22;20240;-81
2021/03/04 18:14:58;;;;;;;;;;;;;;;;;;;;;
2021/03/04 18:17:36;;;;;;;26.77;19.92;;;;;;;;;;6282916;22;20149;-82
2021/03/04 18:20:06;;;;;;;28.83;19.75;;;;;;;;;;6256387;22;20646;-82
2021/03/04 18:22:32;;;;;;;28.58;17.95;;;;;;;;;;6283855;22;20161;-81
2021/03/04 18:25:48;;;;;;;23.92;18.27;;;;;;;;;;6260267;22;20180;-82
2021/03/04 18:28:35;;;;;;;26.23;18.27;;;;;;;;;;6244025;22;20192;-85
2021/03/04 18:31:06;;;;;;;29.05;20.00;;;;;;;;;;6220018;23;20491;-85
2021/03/04 18:33:47;;;;;;;24.38;19.70;;;;;;;;;;6216712;23;20145;-86
2021/03/04 18:36:24;;;;;;;32.13;20.02;;;;;;;;;;6245785;23;20133;-85
2021/03/04 18:39:03;;;;;;;;;;;;;;;;;;;;;
2021/03/04 18:41:39;;;;;;;26.60;21.13;;;;;;;;;;6242674;23;20150;-86
2021/03/04 18:44:11;;;;;;;28.40;20.48;;;;;;;;;;6231190;23;20655;-85
2021/03/04 18:46:38;;;;;;;28.42;19.55;;;;;;;;;;6217030;23;20166;-86
2021/03/04 18:49:04;;;;;;;29.77;21.08;;;;;;;;;;6234849;23;20192;-85
2021/03/04 18:51:34;;;;;;;30.27;21.90;;;;;;;;;;6208498;23;20150;-86
2021/03/04 18:54:06;;;;;;;32.28;24.58;;;;;;;;;;6231619;23;20161;-84
2021/03/04 18:56:38;;;;;;;28.10;20.92;;;;;;;;;;6232924;22;20235;-84
2021/03/04 18:59:10;;;;;;;31.33;21.42;;;;;;;;;;6234605;23;20575;-85
2021/03/04 19:01:42;;;;;;;24.77;18.63;;;;;;;;;;6258271;23;20260;-85
2021/03/04 19:04:08;;;;;;;25.30;19.63;;;;;;;;;;6259591;23;20142;-86
2021/03/04 19:06:35;;;;;;;33.22;23.10;;;;;;;;;;6208882;22;20166;-84
2021/03/04 19:09:03;;;;;;;37.22;21.40;;;;;;;;;;6231688;23;20192;-85
2021/03/04 19:11:29;;;;;;;27.58;19.27;;;;;;;;;;6233006;23;20150;-86
2021/03/04 19:13:58;;;;;;;31.00;19.10;;;;;;;;;;6260987;23;20142;-86
2021/03/04 19:16:24;;;;;;;24.63;18.33;;;;;;;;;;6257202;22;20134;-84
2021/03/04 19:18:51;;;;;;;27.25;19.80;;;;;;;;;;6258731;23;20142;-85
2021/03/04 19:21:18;;;;;;;27.75;20.65;;;;;;;;;;6261761;23;20138;-86
2021/03/04 19:23:44;;;;;;;28.55;20.20;;;;;;;;;;6231230;23;20139;-85
2021/03/04 19:26:13;;;;;;;28.95;22.77;;;;;;;;;;6257132;23;20177;-86
2021/03/04 19:28:40;;;;;;;25.50;20.27;;;;;;;;;;6279117;22;20152;-84
2021/03/04 19:31:06;;;;;;;32.05;21.77;;;;;;;;;;6259936;22;20150;-85
2021/03/04 19:33:36;;;;;;;27.90;19.63;;;;;;;;;;6260518;22;20541;-85
2021/03/04 19:36:02;;;;;;;29.25;19.95;;;;;;;;;;6286242;22;20149;-85
2021/03/04 19:38:28;;;;;;;30.15;18.52;;;;;;;;;;6285886;22;20224;-84
2021/03/04 19:41:00;;;;;;;26.90;18.73;;;;;;;;;;6259546;22;20204;-85
2021/03/04 19:43:29;;;;;;;25.90;22.80;;;;;;;;;;6285268;22;20613;-85
2021/03/04 19:46:01;;;;;;;27.73;17.50;;;;;;;;;;6289078;22;20130;-85
2021/03/04 19:48:32;;;;;;;27.67;21.27;;;;;;;;;;6236599;22;20635;-85
2021/03/04 19:51:09;;;;;;;34.33;23.00;;;;;;;;;;6261857;22;20161;-85
2021/03/04 19:53:37;;;;;;;30.95;22.42;;;;;;;;;;6263305;22;20490;-84
2021/03/04 19:56:03;;;;;;;30.25;22.13;;;;;;;;;;6294407;22;20191;-83
2021/03/04 19:58:29;;;;;;;30.25;22.02;;;;;;;;;;6264654;22;20195;-83
2021/03/04 20:00:56;;;;;;;24.60;20.95;;;;;;;;;;6264571;22;20165;-84
2021/03/04 20:03:30;;;;;;;31.75;20.23;;;;;;;;;;6291904;22;20145;-85
2021/03/04 20:05:59;;;;;;;24.27;19.80;;;;;;;;;;6261656;22;20145;-84
2021/03/04 20:08:32;;;;;;;27.80;19.30;;;;;;;;;;6261131;22;20150;-85
2021/03/04 20:11:01;;;;;;;24.13;18.77;;;;;;;;;;6263596;22;20148;-83
2021/03/04 20:13:28;;;;;;;22.90;17.23;;;;;;;;;;6288003;22;20141;-84
2021/03/04 20:15:54;;;;;;;24.48;17.50;;;;;;;;;;6259126;22;20141;-83
2021/03/04 20:18:20;;;;;;;24.75;15.57;;;;;;;;;;6285803;22;20230;-84
2021/03/04 20:20:46;;;;;;;18.48;14.02;;;;;;;;;;6259231;22;20188;-83
2021/03/04 20:23:16;;;;;;;18.90;13.98;;;;;;;;;;6261278;22;20138;-84
2021/03/04 20:25:42;;;;;;;22.35;14.60;;;;;;;;;;6290373;22;20498;-84
2021/03/04 20:28:11;;;;;;;12.85;11.18;;;;;;;;;;6289538;22;20168;-83
2021/03/04 20:30:40;;;;;;;18.27;15.32;;;;;;;;;;6290720;22;20522;-85
2021/03/04 20:33:07;;;;;;;15.13;13.45;;;;;;;;;;6262773;22;20145;-83
2021/03/04 20:35:33;;;;;;;14.40;11.88;;;;;;;;;;6260236;22;20181;-83
2021/03/04 20:38:00;;;;;;;17.25;12.15;;;;;;;;;;6236815;22;20199;-83
2021/03/04 20:40:26;;;;;;;16.67;13.43;;;;;;;;;;6262133;22;20229;-84
2021/03/04 20:42:55;;;;;;;22.88;16.50;;;;;;;;;;6262185;22;20149;-82
2021/03/04 20:45:25;;;;;;;17.02;13.30;;;;;;;;;;6288590;22;20145;-85
2021/03/04 20:48:03;;;;;;;15.60;11.25;;;;;;;;;;6237946;22;20654;-83
2021/03/04 20:50:42;;;;;;;;;;;;;;;;;;;;;
2021/03/04 20:53:21;;;;;;;;;;;;;;;;;;;;;
2021/03/04 20:55:48;;;;;;;12.90;11.50;;;;;;;;;;6291165;22;20168;-85
2021/03/04 20:58:17;;;;;;;13.40;12.10;;;;;;;;;;6296625;22;20191;-85
2021/03/04 21:00:45;;;;;;;14.93;12.35;;;;;;;;;;6296597;22;20149;-85
2021/03/04 21:03:12;;;;;;;14.93;12.10;;;;;;;;;;6269038;22;20145;-84
2021/03/04 21:05:43;;;;;;;16.13;11.50;;;;;;;;;;6244310;22;20141;-84
2021/03/04 21:08:10;;;;;;;12.35;11.05;;;;;;;;;;6266428;22;20180;-83
2021/03/04 21:10:36;;;;;;;14.02;11.25;;;;;;;;;;6264181;22;20156;-84
2021/03/04 21:13:12;;;;;;;15.15;12.07;;;;;;;;;;6293284;22;20145;-82
2021/03/04 21:15:39;;;;;;;15.15;10.82;;;;;;;;;;6239073;22;20149;-83
2021/03/04 21:18:05;;;;;;;14.13;11.63;;;;;;;;;;6291686;22;20252;-83
2021/03/04 21:20:31;;;;;;;12.40;11.30;;;;;;;;;;6290497;22;20169;-82
2021/03/04 21:23:00;;;;;;;14.18;10.10;;;;;;;;;;6265024;22;20184;-82
2021/03/04 21:25:26;;;;;;;17.33;10.52;;;;;;;;;;6288424;22;20165;-82
2021/03/04 21:27:54;;;;;;;15.32;11.52;;;;;;;;;;6265029;22;20177;-83
2021/03/04 21:30:24;;;;;;;12.40;9.23;;;;;;;;;;6242202;22;20145;-83
2021/03/04 21:32:54;;;;;;;16.73;12.40;;;;;;;;;;6293248;22;20175;-84
2021/03/04 21:35:32;;;;;;;;;;;;;;;;;;;;;
2021/03/04 21:37:58;;;;;;;14.25;11.00;;;;;;;;;;6267778;22;20213;-83
2021/03/04 21:40:26;;;;;;;11.50;10.38;;;;;;;;;;6242144;22;20193;-83
2021/03/04 21:42:53;;;;;;;12.23;10.75;;;;;;;;;;6265805;22;20145;-84
2021/03/04 21:45:21;;;;;;;15.27;11.60;;;;;;;;;;6269493;22;20149;-84
2021/03/04 21:47:48;;;;;;;12.57;11.23;;;;;;;;;;6298459;22;20146;-85
2021/03/04 21:50:16;;;;;;;13.65;12.20;;;;;;;;;;6274634;22;20209;-82
2021/03/04 21:52:46;;;;;;;12.07;10.73;;;;;;;;;;6266453;22;20142;-83
2021/03/04 21:55:12;;;;;;;12.25;10.98;;;;;;;;;;6245012;22;20485;-83
2021/03/04 21:57:44;;;;;;;14.07;11.32;;;;;;;;;;6273897;22;20191;-82
2021/03/04 22:00:11;;;;;;;16.02;11.77;;;;;;;;;;6293722;22;20164;-83
2021/03/04 22:02:41;;;;;;;14.27;10.30;;;;;;;;;;6246170;22;20555;-83
2021/03/04 22:05:08;;;;;;;15.85;10.35;;;;;;;;;;6243260;22;20212;-83
2021/03/04 22:07:34;;;;;;;12.90;11.30;;;;;;;;;;6239424;22;20196;-83
2021/03/04 22:10:15;;;;;;;14.32;11.35;;;;;;;;;;6268958;22;20149;-84
2021/03/04 22:13:18;;;;;;;;;;;;;;;;;;;;;
2021/03/04 22:15:49;;;;;;;12.93;9.60;;;;;;;;;;6211228;23;20149;-83
2021/03/04 22:18:18;;;;;;;11.70;10.48;;;;;;;;;;6234245;23;20174;-85
2021/03/04 22:20:50;;;;;;;18.80;12.60;;;;;;;;;;6253020;22;20177;-82
2021/03/04 22:23:25;;;;;;;17.55;14.55;;;;;;;;;;6266996;22;20148;-84
2021/03/04 22:26:11;;;;;;;19.25;13.55;;;;;;;;;;6266098;22;20122;-83
2021/03/04 22:28:37;;;;;;;18.02;14.73;;;;;;;;;;6266294;22;20184;-84
2021/03/04 22:31:03;;;;;;;23.67;14.07;;;;;;;;;;6240937;22;20168;-83
2021/03/04 22:33:30;;;;;;;20.40;14.32;;;;;;;;;;6263968;22;20146;-84
2021/03/04 22:35:56;;;;;;;23.05;13.32;;;;;;;;;;6264202;22;20145;-85
2021/03/04 22:38:22;;;;;;;22.00;15.13;;;;;;;;;;6240037;22;20157;-83
2021/03/04 22:40:49;;;;;;;26.17;14.85;;;;;;;;;;6264851;22;20173;-83
2021/03/04 22:43:17;;;;;;;24.92;16.48;;;;;;;;;;6286576;22;20164;-83
2021/03/04 22:45:44;;;;;;;27.42;16.20;;;;;;;;;;6235072;22;20156;-84
2021/03/04 22:48:10;;;;;;;17.73;14.73;;;;;;;;;;6259835;22;20229;-83
2021/03/04 22:50:36;;;;;;;23.90;14.32;;;;;;;;;;6289040;22;20170;-84
2021/03/04 22:53:05;;;;;;;20.88;14.80;;;;;;;;;;6262930;22;20156;-83